sensor_id;sensor_type;location;lat;lon;timestamp;P1;durP1;ratioP1;P2;durP2;ratioP2
1545;SDS011;766;51.502;9.752;2023-12-28T00:00:38;2.83;;;1.50;;
1545;SDS011;766;51.502;9.752;2023-12-28T00:03:06;2.97;;;1.33;;
1545;SDS011;766;51.502;9.752;2023-12-28T00:05:36;2.38;;;1.40;;
1545;SDS011;766;51.502;9.752;2023-12-28T00:08:04;2.50;;;1.38;;
1545;SDS011;766;51.502;9.752;2023-12-28T00:10:32;3.63;;;1.60;;
1545;SDS011;766;51.502;9.752;2023-12-28T00:13:03;2.25;;;1.48;;
1545;SDS011;766;51.502;9.752;2023-12-28T00:15:31;3.22;;;1.40;;
1545;SDS011;766;51.502;9.752;2023-12-28T00:17:59;4.65;;;1.73;;
1545;SDS011;766;51.502;9.752;2023-12-28T00:20:28;2.38;;;1.60;;
1545;SDS011;766;51.502;9.752;2023-12-28T00:22:58;1.75;;;1.45;;
1545;SDS011;766;51.502;9.752;2023-12-28T00:25:26;2.40;;;1.48;;
1545;SDS011;766;51.502;9.752;2023-12-28T00:27:54;4.30;;;1.77;;
1545;SDS011;766;51.502;9.752;2023-12-28T00:30:23;4.28;;;1.55;;
1545;SDS011;766;51.502;9.752;2023-12-28T00:32:51;4.53;;;1.63;;
1545;SDS011;766;51.502;9.752;2023-12-28T00:35:19;4.40;;;1.50;;
1545;SDS011;766;51.502;9.752;2023-12-28T00:37:48;4.60;;;1.70;;
1545;SDS011;766;51.502;9.752;2023-12-28T00:40:17;2.78;;;1.58;;
1545;SDS011;766;51.502;9.752;2023-12-28T00:42:45;3.65;;;1.42;;
1545;SDS011;766;51.502;9.752;2023-12-28T00:45:14;4.72;;;2.03;;
1545;SDS011;766;51.502;9.752;2023-12-28T00:47:42;3.75;;;1.90;;
1545;SDS011;766;51.502;9.752;2023-12-28T00:50:10;3.58;;;1.67;;
1545;SDS011;766;51.502;9.752;2023-12-28T00:52:41;5.68;;;1.55;;
1545;SDS011;766;51.502;9.752;2023-12-28T00:55:10;3.40;;;1.80;;
1545;SDS011;766;51.502;9.752;2023-12-28T00:57:39;2.80;;;1.58;;
1545;SDS011;766;51.502;9.752;2023-12-28T01:00:08;3.60;;;1.45;;
1545;SDS011;766;51.502;9.752;2023-12-28T01:02:37;2.33;;;1.60;;
1545;SDS011;766;51.502;9.752;2023-12-28T01:05:05;3.35;;;1.80;;
1545;SDS011;766;51.502;9.752;2023-12-28T01:07:33;2.83;;;1.80;;
1545;SDS011;766;51.502;9.752;2023-12-28T01:10:05;4.53;;;2.20;;
1545;SDS011;766;51.502;9.752;2023-12-28T01:12:34;4.65;;;1.70;;
1545;SDS011;766;51.502;9.752;2023-12-28T01:15:04;4.05;;;1.77;;
1545;SDS011;766;51.502;9.752;2023-12-28T01:17:34;4.05;;;1.83;;
1545;SDS011;766;51.502;9.752;2023-12-28T01:20:02;4.50;;;2.03;;
1545;SDS011;766;51.502;9.752;2023-12-28T01:22:30;3.10;;;1.83;;
1545;SDS011;766;51.502;9.752;2023-12-28T01:24:59;5.82;;;1.77;;
1545;SDS011;766;51.502;9.752;2023-12-28T01:27:27;3.45;;;2.00;;
1545;SDS011;766;51.502;9.752;2023-12-28T01:29:55;2.83;;;1.88;;
1545;SDS011;766;51.502;9.752;2023-12-28T01:32:26;3.03;;;1.88;;
1545;SDS011;766;51.502;9.752;2023-12-28T01:34:54;4.45;;;1.80;;
1545;SDS011;766;51.502;9.752;2023-12-28T01:37:22;3.22;;;1.75;;
1545;SDS011;766;51.502;9.752;2023-12-28T01:39:50;2.70;;;1.80;;
1545;SDS011;766;51.502;9.752;2023-12-28T01:42:19;3.97;;;2.35;;
1545;SDS011;766;51.502;9.752;2023-12-28T01:44:47;4.93;;;2.08;;
1545;SDS011;766;51.502;9.752;2023-12-28T01:47:15;3.72;;;1.80;;
1545;SDS011;766;51.502;9.752;2023-12-28T01:49:45;2.78;;;2.00;;
1545;SDS011;766;51.502;9.752;2023-12-28T01:52:14;4.85;;;2.15;;
1545;SDS011;766;51.502;9.752;2023-12-28T01:54:42;3.67;;;2.15;;
1545;SDS011;766;51.502;9.752;2023-12-28T01:57:10;4.13;;;2.00;;
1545;SDS011;766;51.502;9.752;2023-12-28T01:59:39;4.30;;;2.10;;
1545;SDS011;766;51.502;9.752;2023-12-28T02:02:08;2.53;;;1.83;;
1545;SDS011;766;51.502;9.752;2023-12-28T02:04:36;8.15;;;2.20;;
1545;SDS011;766;51.502;9.752;2023-12-28T02:07:07;6.53;;;2.35;;
1545;SDS011;766;51.502;9.752;2023-12-28T02:09:36;6.45;;;2.35;;
1545;SDS011;766;51.502;9.752;2023-12-28T02:12:04;3.70;;;2.15;;
1545;SDS011;766;51.502;9.752;2023-12-28T02:14:33;5.85;;;2.60;;
1545;SDS011;766;51.502;9.752;2023-12-28T02:17:00;5.15;;;2.67;;
1545;SDS011;766;51.502;9.752;2023-12-28T02:19:32;4.18;;;2.50;;
1545;SDS011;766;51.502;9.752;2023-12-28T02:22:12;4.28;;;2.17;;
1545;SDS011;766;51.502;9.752;2023-12-28T02:25:00;5.95;;;2.72;;
1545;SDS011;766;51.502;9.752;2023-12-28T02:27:35;4.70;;;2.30;;
1545;SDS011;766;51.502;9.752;2023-12-28T02:30:06;4.32;;;2.13;;
1545;SDS011;766;51.502;9.752;2023-12-28T02:32:36;5.82;;;2.35;;
1545;SDS011;766;51.502;9.752;2023-12-28T02:35:14;7.25;;;2.47;;
1545;SDS011;766;51.502;9.752;2023-12-28T02:37:47;4.38;;;2.38;;
1545;SDS011;766;51.502;9.752;2023-12-28T02:40:21;2.90;;;1.90;;
1545;SDS011;766;51.502;9.752;2023-12-28T02:42:51;3.58;;;2.13;;
1545;SDS011;766;51.502;9.752;2023-12-28T02:45:19;3.67;;;2.15;;
1545;SDS011;766;51.502;9.752;2023-12-28T02:47:47;3.70;;;2.20;;
1545;SDS011;766;51.502;9.752;2023-12-28T02:50:16;4.03;;;2.30;;
1545;SDS011;766;51.502;9.752;2023-12-28T02:52:44;3.97;;;2.30;;
1545;SDS011;766;51.502;9.752;2023-12-28T02:55:12;6.70;;;1.95;;
1545;SDS011;766;51.502;9.752;2023-12-28T02:57:42;4.22;;;2.15;;
1545;SDS011;766;51.502;9.752;2023-12-28T03:00:12;6.63;;;2.38;;
1545;SDS011;766;51.502;9.752;2023-12-28T03:02:41;4.82;;;2.28;;
1545;SDS011;766;51.502;9.752;2023-12-28T03:05:09;6.57;;;2.45;;
1545;SDS011;766;51.502;9.752;2023-12-28T03:07:37;2.53;;;2.15;;
1545;SDS011;766;51.502;9.752;2023-12-28T03:10:07;3.30;;;2.08;;
1545;SDS011;766;51.502;9.752;2023-12-28T03:12:40;5.70;;;2.55;;
1545;SDS011;766;51.502;9.752;2023-12-28T03:15:10;3.33;;;2.10;;
1545;SDS011;766;51.502;9.752;2023-12-28T03:17:39;4.53;;;2.30;;
1545;SDS011;766;51.502;9.752;2023-12-28T03:20:08;5.07;;;3.10;;
1545;SDS011;766;51.502;9.752;2023-12-28T03:22:37;2.78;;;1.85;;
1545;SDS011;766;51.502;9.752;2023-12-28T03:25:05;4.20;;;2.40;;
1545;SDS011;766;51.502;9.752;2023-12-28T03:27:33;4.20;;;2.10;;
1545;SDS011;766;51.502;9.752;2023-12-28T03:30:02;3.88;;;2.03;;
1545;SDS011;766;51.502;9.752;2023-12-28T03:32:32;5.82;;;2.08;;
1545;SDS011;766;51.502;9.752;2023-12-28T03:35:00;6.03;;;2.38;;
1545;SDS011;766;51.502;9.752;2023-12-28T03:37:28;3.88;;;1.73;;
1545;SDS011;766;51.502;9.752;2023-12-28T03:39:56;4.03;;;2.08;;
1545;SDS011;766;51.502;9.752;2023-12-28T03:42:24;3.53;;;2.13;;
1545;SDS011;766;51.502;9.752;2023-12-28T03:44:53;4.72;;;1.92;;
1545;SDS011;766;51.502;9.752;2023-12-28T03:47:21;3.45;;;2.05;;
1545;SDS011;766;51.502;9.752;2023-12-28T03:49:50;4.32;;;2.50;;
1545;SDS011;766;51.502;9.752;2023-12-28T03:52:19;3.22;;;1.98;;
1545;SDS011;766;51.502;9.752;2023-12-28T03:54:47;6.95;;;2.38;;
1545;SDS011;766;51.502;9.752;2023-12-28T03:57:15;4.72;;;2.35;;
1545;SDS011;766;51.502;9.752;2023-12-28T03:59:43;2.58;;;1.80;;
1545;SDS011;766;51.502;9.752;2023-12-28T04:02:13;3.55;;;2.20;;
1545;SDS011;766;51.502;9.752;2023-12-28T04:04:43;3.80;;;2.28;;
1545;SDS011;766;51.502;9.752;2023-12-28T04:07:15;2.95;;;1.92;;
1545;SDS011;766;51.502;9.752;2023-12-28T04:09:43;5.50;;;2.20;;
1545;SDS011;766;51.502;9.752;2023-12-28T04:12:12;4.15;;;2.13;;
1545;SDS011;766;51.502;9.752;2023-12-28T04:14:40;5.05;;;2.28;;
1545;SDS011;766;51.502;9.752;2023-12-28T04:17:08;5.75;;;2.33;;
1545;SDS011;766;51.502;9.752;2023-12-28T04:19:36;8.35;;;2.10;;
1545;SDS011;766;51.502;9.752;2023-12-28T04:22:04;6.75;;;2.40;;
1545;SDS011;766;51.502;9.752;2023-12-28T04:24:34;6.88;;;2.15;;
1545;SDS011;766;51.502;9.752;2023-12-28T04:27:02;4.45;;;2.25;;
1545;SDS011;766;51.502;9.752;2023-12-28T04:29:31;4.43;;;2.10;;
1545;SDS011;766;51.502;9.752;2023-12-28T04:31:59;3.10;;;2.20;;
1545;SDS011;766;51.502;9.752;2023-12-28T04:34:27;7.75;;;2.22;;
1545;SDS011;766;51.502;9.752;2023-12-28T04:36:55;2.88;;;2.35;;
1545;SDS011;766;51.502;9.752;2023-12-28T04:39:23;3.08;;;2.00;;
1545;SDS011;766;51.502;9.752;2023-12-28T04:41:53;3.17;;;1.80;;
1545;SDS011;766;51.502;9.752;2023-12-28T04:44:21;4.40;;;2.20;;
1545;SDS011;766;51.502;9.752;2023-12-28T04:46:49;5.22;;;2.45;;
1545;SDS011;766;51.502;9.752;2023-12-28T04:49:17;3.00;;;2.13;;
1545;SDS011;766;51.502;9.752;2023-12-28T04:51:45;7.72;;;2.30;;
1545;SDS011;766;51.502;9.752;2023-12-28T04:54:13;3.22;;;2.20;;
1545;SDS011;766;51.502;9.752;2023-12-28T04:56:43;2.30;;;1.65;;
1545;SDS011;766;51.502;9.752;2023-12-28T04:59:13;2.83;;;1.92;;
1545;SDS011;766;51.502;9.752;2023-12-28T05:01:41;5.60;;;2.20;;
1545;SDS011;766;51.502;9.752;2023-12-28T05:04:09;3.08;;;2.20;;
1545;SDS011;766;51.502;9.752;2023-12-28T05:06:43;4.05;;;2.33;;
1545;SDS011;766;51.502;9.752;2023-12-28T05:09:11;7.05;;;2.53;;
1545;SDS011;766;51.502;9.752;2023-12-28T05:11:40;4.40;;;1.95;;
1545;SDS011;766;51.502;9.752;2023-12-28T05:14:08;3.60;;;1.92;;
1545;SDS011;766;51.502;9.752;2023-12-28T05:16:38;3.38;;;2.10;;
1545;SDS011;766;51.502;9.752;2023-12-28T05:19:06;3.63;;;2.10;;
1545;SDS011;766;51.502;9.752;2023-12-28T05:21:35;2.60;;;2.00;;
1545;SDS011;766;51.502;9.752;2023-12-28T05:24:04;3.97;;;2.47;;
1545;SDS011;766;51.502;9.752;2023-12-28T05:26:33;3.05;;;1.90;;
1545;SDS011;766;51.502;9.752;2023-12-28T05:29:01;4.20;;;1.80;;
1545;SDS011;766;51.502;9.752;2023-12-28T05:31:30;2.35;;;1.85;;
1545;SDS011;766;51.502;9.752;2023-12-28T05:34:00;3.08;;;2.28;;
1545;SDS011;766;51.502;9.752;2023-12-28T05:36:28;5.13;;;2.33;;
1545;SDS011;766;51.502;9.752;2023-12-28T05:38:56;4.03;;;2.08;;
1545;SDS011;766;51.502;9.752;2023-12-28T05:41:25;4.20;;;2.20;;
1545;SDS011;766;51.502;9.752;2023-12-28T05:43:53;3.85;;;2.20;;
1545;SDS011;766;51.502;9.752;2023-12-28T05:46:21;3.95;;;2.17;;
1545;SDS011;766;51.502;9.752;2023-12-28T05:48:49;5.20;;;2.42;;
1545;SDS011;766;51.502;9.752;2023-12-28T05:51:19;4.05;;;1.95;;
1545;SDS011;766;51.502;9.752;2023-12-28T05:53:47;2.85;;;2.20;;
1545;SDS011;766;51.502;9.752;2023-12-28T05:56:15;4.18;;;2.55;;
1545;SDS011;766;51.502;9.752;2023-12-28T05:58:46;4.40;;;2.45;;
1545;SDS011;766;51.502;9.752;2023-12-28T06:01:15;7.10;;;2.53;;
1545;SDS011;766;51.502;9.752;2023-12-28T06:03:43;3.47;;;2.58;;
1545;SDS011;766;51.502;9.752;2023-12-28T06:06:11;4.07;;;2.50;;
1545;SDS011;766;51.502;9.752;2023-12-28T06:08:41;5.28;;;2.28;;
1545;SDS011;766;51.502;9.752;2023-12-28T06:11:12;2.97;;;2.10;;
1545;SDS011;766;51.502;9.752;2023-12-28T06:13:41;5.00;;;2.58;;
1545;SDS011;766;51.502;9.752;2023-12-28T06:16:09;5.68;;;2.47;;
1545;SDS011;766;51.502;9.752;2023-12-28T06:18:37;4.13;;;2.30;;
1545;SDS011;766;51.502;9.752;2023-12-28T06:21:07;4.80;;;2.60;;
1545;SDS011;766;51.502;9.752;2023-12-28T06:23:35;5.55;;;3.00;;
1545;SDS011;766;51.502;9.752;2023-12-28T06:26:05;4.35;;;2.53;;
1545;SDS011;766;51.502;9.752;2023-12-28T06:28:34;3.47;;;2.30;;
1545;SDS011;766;51.502;9.752;2023-12-28T06:31:02;6.20;;;2.60;;
1545;SDS011;766;51.502;9.752;2023-12-28T06:33:31;3.55;;;2.63;;
1545;SDS011;766;51.502;9.752;2023-12-28T06:36:04;3.33;;;2.20;;
1545;SDS011;766;51.502;9.752;2023-12-28T06:38:33;6.45;;;2.55;;
1545;SDS011;766;51.502;9.752;2023-12-28T06:41:01;3.75;;;2.38;;
1545;SDS011;766;51.502;9.752;2023-12-28T06:43:30;3.30;;;2.42;;
1545;SDS011;766;51.502;9.752;2023-12-28T06:45:58;5.03;;;2.65;;
1545;SDS011;766;51.502;9.752;2023-12-28T06:48:27;5.50;;;2.60;;
1545;SDS011;766;51.502;9.752;2023-12-28T06:50:58;6.93;;;2.70;;
1545;SDS011;766;51.502;9.752;2023-12-28T06:53:26;5.38;;;3.08;;
1545;SDS011;766;51.502;9.752;2023-12-28T06:55:54;4.28;;;2.42;;
1545;SDS011;766;51.502;9.752;2023-12-28T06:58:22;3.10;;;2.40;;
1545;SDS011;766;51.502;9.752;2023-12-28T07:00:52;4.38;;;2.50;;
1545;SDS011;766;51.502;9.752;2023-12-28T07:03:23;4.20;;;2.42;;
1545;SDS011;766;51.502;9.752;2023-12-28T07:06:01;4.53;;;2.40;;
1545;SDS011;766;51.502;9.752;2023-12-28T07:08:34;3.45;;;2.30;;
1545;SDS011;766;51.502;9.752;2023-12-28T07:11:05;4.47;;;2.50;;
1545;SDS011;766;51.502;9.752;2023-12-28T07:13:37;3.08;;;2.33;;
1545;SDS011;766;51.502;9.752;2023-12-28T07:16:07;3.92;;;2.60;;
1545;SDS011;766;51.502;9.752;2023-12-28T07:18:45;3.15;;;2.25;;
1545;SDS011;766;51.502;9.752;2023-12-28T07:21:14;4.32;;;2.30;;
1545;SDS011;766;51.502;9.752;2023-12-28T07:23:52;4.32;;;2.63;;
1545;SDS011;766;51.502;9.752;2023-12-28T07:26:20;5.25;;;2.92;;
1545;SDS011;766;51.502;9.752;2023-12-28T07:28:50;4.60;;;2.60;;
1545;SDS011;766;51.502;9.752;2023-12-28T07:31:23;4.80;;;2.70;;
1545;SDS011;766;51.502;9.752;2023-12-28T07:33:52;5.18;;;2.72;;
1545;SDS011;766;51.502;9.752;2023-12-28T07:36:21;3.58;;;2.95;;
1545;SDS011;766;51.502;9.752;2023-12-28T07:38:49;5.30;;;2.47;;
1545;SDS011;766;51.502;9.752;2023-12-28T07:41:18;4.35;;;2.42;;
1545;SDS011;766;51.502;9.752;2023-12-28T07:43:46;3.65;;;2.50;;
1545;SDS011;766;51.502;9.752;2023-12-28T07:46:15;3.90;;;2.67;;
1545;SDS011;766;51.502;9.752;2023-12-28T07:48:44;5.65;;;2.60;;
1545;SDS011;766;51.502;9.752;2023-12-28T07:51:13;4.35;;;2.70;;
1545;SDS011;766;51.502;9.752;2023-12-28T07:53:44;3.38;;;2.33;;
1545;SDS011;766;51.502;9.752;2023-12-28T07:56:12;4.18;;;2.63;;
1545;SDS011;766;51.502;9.752;2023-12-28T07:58:40;3.97;;;2.25;;
1545;SDS011;766;51.502;9.752;2023-12-28T08:01:09;4.07;;;2.25;;
1545;SDS011;766;51.502;9.752;2023-12-28T08:03:38;4.18;;;2.67;;
1545;SDS011;766;51.502;9.752;2023-12-28T08:06:08;4.75;;;2.17;;
1545;SDS011;766;51.502;9.752;2023-12-28T08:08:39;2.95;;;2.13;;
1545;SDS011;766;51.502;9.752;2023-12-28T08:11:07;4.93;;;2.50;;
1545;SDS011;766;51.502;9.752;2023-12-28T08:13:37;3.15;;;2.33;;
1545;SDS011;766;51.502;9.752;2023-12-28T08:16:05;4.35;;;2.40;;
1545;SDS011;766;51.502;9.752;2023-12-28T08:18:34;4.10;;;2.35;;
1545;SDS011;766;51.502;9.752;2023-12-28T08:21:03;5.35;;;2.25;;
1545;SDS011;766;51.502;9.752;2023-12-28T08:23:32;4.32;;;2.50;;
1545;SDS011;766;51.502;9.752;2023-12-28T08:26:00;5.22;;;2.40;;
1545;SDS011;766;51.502;9.752;2023-12-28T08:28:28;5.68;;;2.30;;
1545;SDS011;766;51.502;9.752;2023-12-28T08:30:57;5.97;;;2.92;;
1545;SDS011;766;51.502;9.752;2023-12-28T08:33:25;3.15;;;2.45;;
1545;SDS011;766;51.502;9.752;2023-12-28T08:35:53;3.22;;;2.30;;
1545;SDS011;766;51.502;9.752;2023-12-28T08:38:21;3.55;;;2.80;;
1545;SDS011;766;51.502;9.752;2023-12-28T08:40:51;6.20;;;2.20;;
1545;SDS011;766;51.502;9.752;2023-12-28T08:43:19;6.22;;;2.65;;
1545;SDS011;766;51.502;9.752;2023-12-28T08:45:48;19.88;;;3.03;;
1545;SDS011;766;51.502;9.752;2023-12-28T08:48:16;5.80;;;2.60;;
1545;SDS011;766;51.502;9.752;2023-12-28T08:50:44;6.38;;;2.50;;
1545;SDS011;766;51.502;9.752;2023-12-28T08:53:12;4.30;;;2.28;;
1545;SDS011;766;51.502;9.752;2023-12-28T08:55:41;3.63;;;2.58;;
1545;SDS011;766;51.502;9.752;2023-12-28T08:58:10;3.78;;;2.28;;
1545;SDS011;766;51.502;9.752;2023-12-28T09:00:38;2.75;;;2.33;;
1545;SDS011;766;51.502;9.752;2023-12-28T09:03:07;4.55;;;2.47;;
1545;SDS011;766;51.502;9.752;2023-12-28T09:05:35;4.35;;;2.85;;
1545;SDS011;766;51.502;9.752;2023-12-28T09:08:03;6.43;;;2.75;;
1545;SDS011;766;51.502;9.752;2023-12-28T09:10:32;5.65;;;2.75;;
1545;SDS011;766;51.502;9.752;2023-12-28T09:13:00;6.30;;;3.35;;
1545;SDS011;766;51.502;9.752;2023-12-28T09:15:37;6.05;;;2.90;;
1545;SDS011;766;51.502;9.752;2023-12-28T09:18:05;5.35;;;2.75;;
1545;SDS011;766;51.502;9.752;2023-12-28T09:20:34;5.07;;;2.58;;
1545;SDS011;766;51.502;9.752;2023-12-28T09:23:02;3.53;;;2.70;;
1545;SDS011;766;51.502;9.752;2023-12-28T09:25:32;4.15;;;2.80;;
1545;SDS011;766;51.502;9.752;2023-12-28T09:28:00;5.63;;;2.63;;
1545;SDS011;766;51.502;9.752;2023-12-28T09:30:28;3.85;;;2.72;;
1545;SDS011;766;51.502;9.752;2023-12-28T09:33:01;4.20;;;2.80;;
1545;SDS011;766;51.502;9.752;2023-12-28T09:35:29;4.55;;;2.63;;
1545;SDS011;766;51.502;9.752;2023-12-28T09:37:58;4.32;;;2.80;;
1545;SDS011;766;51.502;9.752;2023-12-28T09:40:26;4.60;;;2.40;;
1545;SDS011;766;51.502;9.752;2023-12-28T09:42:57;4.57;;;2.80;;
1545;SDS011;766;51.502;9.752;2023-12-28T09:45:30;6.60;;;2.47;;
1545;SDS011;766;51.502;9.752;2023-12-28T09:48:00;4.35;;;2.53;;
1545;SDS011;766;51.502;9.752;2023-12-28T09:50:31;4.18;;;2.25;;
1545;SDS011;766;51.502;9.752;2023-12-28T09:52:59;4.78;;;2.30;;
1545;SDS011;766;51.502;9.752;2023-12-28T09:55:28;4.50;;;2.33;;
1545;SDS011;766;51.502;9.752;2023-12-28T09:57:57;5.68;;;2.63;;
1545;SDS011;766;51.502;9.752;2023-12-28T10:00:27;7.22;;;2.65;;
1545;SDS011;766;51.502;9.752;2023-12-28T10:02:55;4.05;;;2.78;;
1545;SDS011;766;51.502;9.752;2023-12-28T10:05:25;4.97;;;2.90;;
1545;SDS011;766;51.502;9.752;2023-12-28T10:07:54;3.53;;;2.30;;
1545;SDS011;766;51.502;9.752;2023-12-28T10:10:24;3.20;;;2.55;;
1545;SDS011;766;51.502;9.752;2023-12-28T10:12:52;4.15;;;3.05;;
1545;SDS011;766;51.502;9.752;2023-12-28T10:15:20;6.95;;;2.72;;
1545;SDS011;766;51.502;9.752;2023-12-28T10:17:48;5.25;;;2.67;;
1545;SDS011;766;51.502;9.752;2023-12-28T10:20:16;4.07;;;2.28;;
1545;SDS011;766;51.502;9.752;2023-12-28T10:22:46;3.03;;;2.47;;
1545;SDS011;766;51.502;9.752;2023-12-28T10:25:15;6.32;;;2.88;;
1545;SDS011;766;51.502;9.752;2023-12-28T10:27:43;4.22;;;2.65;;
1545;SDS011;766;51.502;9.752;2023-12-28T10:30:12;4.78;;;2.58;;
1545;SDS011;766;51.502;9.752;2023-12-28T10:32:40;5.90;;;2.72;;
1545;SDS011;766;51.502;9.752;2023-12-28T10:35:09;4.40;;;2.40;;
1545;SDS011;766;51.502;9.752;2023-12-28T10:37:39;3.85;;;2.28;;
1545;SDS011;766;51.502;9.752;2023-12-28T10:40:13;5.40;;;2.60;;
1545;SDS011;766;51.502;9.752;2023-12-28T10:42:47;5.10;;;2.40;;
1545;SDS011;766;51.502;9.752;2023-12-28T10:45:19;2.75;;;1.95;;
1545;SDS011;766;51.502;9.752;2023-12-28T10:47:54;3.17;;;2.17;;
1545;SDS011;766;51.502;9.752;2023-12-28T10:50:28;4.15;;;2.20;;
1545;SDS011;766;51.502;9.752;2023-12-28T10:53:04;4.80;;;1.98;;
1545;SDS011;766;51.502;9.752;2023-12-28T10:55:47;4.00;;;1.95;;
1545;SDS011;766;51.502;9.752;2023-12-28T10:58:21;4.28;;;2.30;;
1545;SDS011;766;51.502;9.752;2023-12-28T11:00:58;3.28;;;2.03;;
1545;SDS011;766;51.502;9.752;2023-12-28T11:03:30;5.03;;;2.38;;
1545;SDS011;766;51.502;9.752;2023-12-28T11:06:05;5.20;;;2.40;;
1545;SDS011;766;51.502;9.752;2023-12-28T11:08:34;3.95;;;2.10;;
1545;SDS011;766;51.502;9.752;2023-12-28T11:11:05;4.95;;;2.17;;
1545;SDS011;766;51.502;9.752;2023-12-28T11:13:34;7.20;;;2.13;;
1545;SDS011;766;51.502;9.752;2023-12-28T11:16:04;3.90;;;2.05;;
1545;SDS011;766;51.502;9.752;2023-12-28T11:18:33;3.83;;;2.03;;
1545;SDS011;766;51.502;9.752;2023-12-28T11:21:01;5.63;;;2.58;;
1545;SDS011;766;51.502;9.752;2023-12-28T11:23:32;2.80;;;1.83;;
1545;SDS011;766;51.502;9.752;2023-12-28T11:26:01;5.28;;;1.85;;
1545;SDS011;766;51.502;9.752;2023-12-28T11:28:31;3.55;;;1.92;;
1545;SDS011;766;51.502;9.752;2023-12-28T11:30:59;4.70;;;2.13;;
1545;SDS011;766;51.502;9.752;2023-12-28T11:33:30;6.15;;;2.10;;
1545;SDS011;766;51.502;9.752;2023-12-28T11:35:58;3.17;;;1.73;;
1545;SDS011;766;51.502;9.752;2023-12-28T11:38:26;4.53;;;1.83;;
1545;SDS011;766;51.502;9.752;2023-12-28T11:40:55;5.38;;;2.00;;
1545;SDS011;766;51.502;9.752;2023-12-28T11:43:23;5.95;;;2.00;;
1545;SDS011;766;51.502;9.752;2023-12-28T11:46:01;6.10;;;2.10;;
1545;SDS011;766;51.502;9.752;2023-12-28T11:48:32;6.07;;;1.60;;
1545;SDS011;766;51.502;9.752;2023-12-28T11:51:00;6.93;;;1.92;;
1545;SDS011;766;51.502;9.752;2023-12-28T11:53:29;4.53;;;1.70;;
1545;SDS011;766;51.502;9.752;2023-12-28T11:56:00;4.28;;;1.65;;
1545;SDS011;766;51.502;9.752;2023-12-28T11:58:30;4.72;;;2.00;;
1545;SDS011;766;51.502;9.752;2023-12-28T12:01:00;4.32;;;1.40;;
1545;SDS011;766;51.502;9.752;2023-12-28T12:03:29;6.78;;;2.30;;
1545;SDS011;766;51.502;9.752;2023-12-28T12:05:57;3.35;;;1.50;;
1545;SDS011;766;51.502;9.752;2023-12-28T12:08:25;3.03;;;1.50;;
1545;SDS011;766;51.502;9.752;2023-12-28T12:11:00;4.22;;;1.88;;
1545;SDS011;766;51.502;9.752;2023-12-28T12:13:30;6.70;;;2.30;;
1545;SDS011;766;51.502;9.752;2023-12-28T12:15:58;4.30;;;1.58;;
1545;SDS011;766;51.502;9.752;2023-12-28T12:18:33;4.10;;;1.75;;
1545;SDS011;766;51.502;9.752;2023-12-28T12:21:05;4.63;;;1.60;;
1545;SDS011;766;51.502;9.752;2023-12-28T12:23:33;3.92;;;1.52;;
1545;SDS011;766;51.502;9.752;2023-12-28T12:26:04;3.50;;;1.45;;
1545;SDS011;766;51.502;9.752;2023-12-28T12:28:33;7.03;;;1.52;;
1545;SDS011;766;51.502;9.752;2023-12-28T12:31:04;5.40;;;1.77;;
1545;SDS011;766;51.502;9.752;2023-12-28T12:33:33;2.92;;;1.70;;
1545;SDS011;766;51.502;9.752;2023-12-28T12:36:02;2.08;;;1.50;;
1545;SDS011;766;51.502;9.752;2023-12-28T12:38:32;3.60;;;1.38;;
1545;SDS011;766;51.502;9.752;2023-12-28T12:41:00;3.15;;;1.58;;
1545;SDS011;766;51.502;9.752;2023-12-28T12:43:28;3.90;;;1.40;;
1545;SDS011;766;51.502;9.752;2023-12-28T12:45:56;4.93;;;1.42;;
1545;SDS011;766;51.502;9.752;2023-12-28T12:48:26;3.78;;;1.50;;
1545;SDS011;766;51.502;9.752;2023-12-28T12:50:55;2.20;;;1.20;;
1545;SDS011;766;51.502;9.752;2023-12-28T12:53:23;5.10;;;1.52;;
1545;SDS011;766;51.502;9.752;2023-12-28T12:55:53;2.75;;;1.27;;
1545;SDS011;766;51.502;9.752;2023-12-28T12:58:22;8.25;;;1.83;;
1545;SDS011;766;51.502;9.752;2023-12-28T13:00:51;4.72;;;1.40;;
1545;SDS011;766;51.502;9.752;2023-12-28T13:03:19;4.10;;;1.48;;
1545;SDS011;766;51.502;9.752;2023-12-28T13:05:49;3.10;;;1.30;;
1545;SDS011;766;51.502;9.752;2023-12-28T13:08:17;2.85;;;1.27;;
1545;SDS011;766;51.502;9.752;2023-12-28T13:10:45;3.83;;;1.70;;
1545;SDS011;766;51.502;9.752;2023-12-28T13:13:13;4.93;;;1.80;;
1545;SDS011;766;51.502;9.752;2023-12-28T13:15:42;6.78;;;1.83;;
1545;SDS011;766;51.502;9.752;2023-12-28T13:18:10;5.10;;;1.65;;
1545;SDS011;766;51.502;9.752;2023-12-28T13:20:39;4.60;;;1.35;;
1545;SDS011;766;51.502;9.752;2023-12-28T13:23:10;3.55;;;1.45;;
1545;SDS011;766;51.502;9.752;2023-12-28T13:25:38;3.40;;;1.40;;
1545;SDS011;766;51.502;9.752;2023-12-28T13:28:07;4.25;;;1.75;;
1545;SDS011;766;51.502;9.752;2023-12-28T13:30:36;5.78;;;1.75;;
1545;SDS011;766;51.502;9.752;2023-12-28T13:33:04;4.93;;;1.60;;
1545;SDS011;766;51.502;9.752;2023-12-28T13:35:33;6.00;;;1.77;;
1545;SDS011;766;51.502;9.752;2023-12-28T13:38:01;4.85;;;1.20;;
1545;SDS011;766;51.502;9.752;2023-12-28T13:40:30;4.32;;;1.65;;
1545;SDS011;766;51.502;9.752;2023-12-28T13:42:59;3.08;;;1.35;;
1545;SDS011;766;51.502;9.752;2023-12-28T13:45:27;2.50;;;1.20;;
1545;SDS011;766;51.502;9.752;2023-12-28T13:47:55;7.15;;;1.70;;
1545;SDS011;766;51.502;9.752;2023-12-28T13:50:24;2.70;;;1.23;;
1545;SDS011;766;51.502;9.752;2023-12-28T13:52:52;3.15;;;1.58;;
1545;SDS011;766;51.502;9.752;2023-12-28T13:55:20;5.90;;;1.38;;
1545;SDS011;766;51.502;9.752;2023-12-28T13:57:49;4.53;;;1.40;;
1545;SDS011;766;51.502;9.752;2023-12-28T14:00:18;4.50;;;1.25;;
1545;SDS011;766;51.502;9.752;2023-12-28T14:02:46;7.43;;;1.40;;
1545;SDS011;766;51.502;9.752;2023-12-28T14:05:14;2.63;;;1.35;;
1545;SDS011;766;51.502;9.752;2023-12-28T14:07:43;5.03;;;1.63;;
1545;SDS011;766;51.502;9.752;2023-12-28T14:10:11;4.90;;;1.33;;
1545;SDS011;766;51.502;9.752;2023-12-28T14:12:39;2.38;;;1.30;;
1545;SDS011;766;51.502;9.752;2023-12-28T14:15:09;3.90;;;1.38;;
1545;SDS011;766;51.502;9.752;2023-12-28T14:17:37;3.75;;;1.50;;
1545;SDS011;766;51.502;9.752;2023-12-28T14:20:06;9.45;;;1.60;;
1545;SDS011;766;51.502;9.752;2023-12-28T14:22:38;3.25;;;1.20;;
1545;SDS011;766;51.502;9.752;2023-12-28T14:25:07;4.68;;;1.00;;
1545;SDS011;766;51.502;9.752;2023-12-28T14:27:38;2.70;;;1.40;;
1545;SDS011;766;51.502;9.752;2023-12-28T14:30:07;4.25;;;1.30;;
1545;SDS011;766;51.502;9.752;2023-12-28T14:32:38;3.08;;;1.17;;
1545;SDS011;766;51.502;9.752;2023-12-28T14:35:07;2.97;;;1.20;;
1545;SDS011;766;51.502;9.752;2023-12-28T14:37:36;5.30;;;1.30;;
1545;SDS011;766;51.502;9.752;2023-12-28T14:40:05;3.58;;;1.15;;
1545;SDS011;766;51.502;9.752;2023-12-28T14:42:36;5.40;;;1.67;;
1545;SDS011;766;51.502;9.752;2023-12-28T14:45:05;4.00;;;1.23;;
1545;SDS011;766;51.502;9.752;2023-12-28T14:47:34;3.35;;;1.23;;
1545;SDS011;766;51.502;9.752;2023-12-28T14:50:05;2.13;;;0.95;;
1545;SDS011;766;51.502;9.752;2023-12-28T14:52:34;4.65;;;1.13;;
1545;SDS011;766;51.502;9.752;2023-12-28T14:55:04;2.70;;;1.10;;
1545;SDS011;766;51.502;9.752;2023-12-28T14:57:35;4.63;;;1.25;;
1545;SDS011;766;51.502;9.752;2023-12-28T15:00:04;5.22;;;1.45;;
1545;SDS011;766;51.502;9.752;2023-12-28T15:02:33;7.15;;;1.17;;
1545;SDS011;766;51.502;9.752;2023-12-28T15:05:01;2.00;;;1.10;;
1545;SDS011;766;51.502;9.752;2023-12-28T15:07:31;3.45;;;1.30;;
1545;SDS011;766;51.502;9.752;2023-12-28T15:10:00;2.95;;;1.10;;
1545;SDS011;766;51.502;9.752;2023-12-28T15:12:29;5.60;;;1.33;;
1545;SDS011;766;51.502;9.752;2023-12-28T15:14:57;5.65;;;1.40;;
1545;SDS011;766;51.502;9.752;2023-12-28T15:17:26;3.65;;;1.25;;
1545;SDS011;766;51.502;9.752;2023-12-28T15:19:55;2.15;;;0.93;;
1545;SDS011;766;51.502;9.752;2023-12-28T15:22:24;4.07;;;1.42;;
1545;SDS011;766;51.502;9.752;2023-12-28T15:24:54;3.17;;;1.30;;
1545;SDS011;766;51.502;9.752;2023-12-28T15:27:23;4.63;;;1.45;;
1545;SDS011;766;51.502;9.752;2023-12-28T15:29:51;4.50;;;1.25;;
1545;SDS011;766;51.502;9.752;2023-12-28T15:32:20;7.28;;;1.50;;
1545;SDS011;766;51.502;9.752;2023-12-28T15:34:48;2.83;;;1.13;;
1545;SDS011;766;51.502;9.752;2023-12-28T15:37:16;4.93;;;1.33;;
1545;SDS011;766;51.502;9.752;2023-12-28T15:39:45;3.83;;;1.40;;
1545;SDS011;766;51.502;9.752;2023-12-28T15:42:17;4.53;;;1.38;;